sensor_id;sensor_type;location;lat;lon;timestamp;temperature;humidity
48994;DHT22;34804;49.214;12.276;2022-09-09T00:04:58;12.00;91.40
48994;DHT22;34804;49.214;12.276;2022-09-09T00:07:41;11.80;91.40
48994;DHT22;34804;49.214;12.276;2022-09-09T00:23:27;11.90;92.00
48994;DHT22;34804;49.214;12.276;2022-09-09T00:26:05;11.90;91.70
48994;DHT22;34804;49.214;12.276;2022-09-09T00:28:40;11.90;91.60
48994;DHT22;34804;49.214;12.276;2022-09-09T00:31:23;11.80;91.30
48994;DHT22;34804;49.214;12.276;2022-09-09T00:33:52;11.80;91.40
48994;DHT22;34804;49.214;12.276;2022-09-09T00:36:23;11.80;91.50
48994;DHT22;34804;49.214;12.276;2022-09-09T00:38:56;11.80;91.50
48994;DHT22;34804;49.214;12.276;2022-09-09T00:44:03;11.80;91.50
48994;DHT22;34804;49.214;12.276;2022-09-09T00:49:27;11.80;90.80
48994;DHT22;34804;49.214;12.276;2022-09-09T00:59:50;11.50;91.80
48994;DHT22;34804;49.214;12.276;2022-09-09T01:05:12;11.50;92.10
48994;DHT22;34804;49.214;12.276;2022-09-09T01:07:44;11.50;91.80
48994;DHT22;34804;49.214;12.276;2022-09-09T01:13:15;11.60;91.50
48994;DHT22;34804;49.214;12.276;2022-09-09T01:15:43;11.60;91.90
48994;DHT22;34804;49.214;12.276;2022-09-09T01:18:14;11.50;91.80
48994;DHT22;34804;49.214;12.276;2022-09-09T01:24:24;11.40;91.80
48994;DHT22;34804;49.214;12.276;2022-09-09T01:26:58;11.40;91.40
48994;DHT22;34804;49.214;12.276;2022-09-09T01:29:25;11.40;91.90
48994;DHT22;34804;49.214;12.276;2022-09-09T01:34:27;11.30;91.70
48994;DHT22;34804;49.214;12.276;2022-09-09T01:39:27;11.20;91.90
48994;DHT22;34804;49.214;12.276;2022-09-09T01:41:55;11.10;91.90
48994;DHT22;34804;49.214;12.276;2022-09-09T01:44:22;11.20;92.00
48994;DHT22;34804;49.214;12.276;2022-09-09T01:46:50;11.20;92.00
48994;DHT22;34804;49.214;12.276;2022-09-09T01:49:18;11.20;92.00
48994;DHT22;34804;49.214;12.276;2022-09-09T01:51:48;11.10;91.80
48994;DHT22;34804;49.214;12.276;2022-09-09T01:54:16;11.10;92.30
48994;DHT22;34804;49.214;12.276;2022-09-09T02:00:00;11.10;92.80
48994;DHT22;34804;49.214;12.276;2022-09-09T02:07:50;10.90;92.90
48994;DHT22;34804;49.214;12.276;2022-09-09T02:10:26;10.90;92.40
48994;DHT22;34804;49.214;12.276;2022-09-09T02:13:18;10.80;92.40
48994;DHT22;34804;49.214;12.276;2022-09-09T02:15:53;10.80;92.70
48994;DHT22;34804;49.214;12.276;2022-09-09T02:18:48;10.80;92.80
48994;DHT22;34804;49.214;12.276;2022-09-09T02:21:17;10.80;92.70
48994;DHT22;34804;49.214;12.276;2022-09-09T02:23:47;10.90;92.40
48994;DHT22;34804;49.214;12.276;2022-09-09T02:26:17;10.90;92.30
48994;DHT22;34804;49.214;12.276;2022-09-09T02:28:48;10.90;91.50
48994;DHT22;34804;49.214;12.276;2022-09-09T02:31:21;10.90;91.90
48994;DHT22;34804;49.214;12.276;2022-09-09T02:33:55;10.80;91.40
48994;DHT22;34804;49.214;12.276;2022-09-09T02:36:24;10.80;91.30
48994;DHT22;34804;49.214;12.276;2022-09-09T02:38:53;10.80;91.00
48994;DHT22;34804;49.214;12.276;2022-09-09T02:41:32;10.80;91.00
48994;DHT22;34804;49.214;12.276;2022-09-09T02:43:59;10.70;91.00
48994;DHT22;34804;49.214;12.276;2022-09-09T02:49:09;10.60;90.90
48994;DHT22;34804;49.214;12.276;2022-09-09T02:52:00;10.70;91.60
48994;DHT22;34804;49.214;12.276;2022-09-09T02:54:28;10.60;91.50
48994;DHT22;34804;49.214;12.276;2022-09-09T02:57:19;10.50;91.90
48994;DHT22;34804;49.214;12.276;2022-09-09T02:59:47;10.50;92.50
48994;DHT22;34804;49.214;12.276;2022-09-09T03:02:15;10.40;92.60
48994;DHT22;34804;49.214;12.276;2022-09-09T03:04:42;10.40;93.00
48994;DHT22;34804;49.214;12.276;2022-09-09T03:07:11;10.40;92.70
48994;DHT22;34804;49.214;12.276;2022-09-09T03:09:38;10.40;92.60
48994;DHT22;34804;49.214;12.276;2022-09-09T03:12:05;10.40;92.50
48994;DHT22;34804;49.214;12.276;2022-09-09T03:14:32;10.40;92.20
48994;DHT22;34804;49.214;12.276;2022-09-09T03:16:59;10.50;92.40
48994;DHT22;34804;49.214;12.276;2022-09-09T03:19:27;10.40;91.90
48994;DHT22;34804;49.214;12.276;2022-09-09T03:21:54;10.40;91.60
48994;DHT22;34804;49.214;12.276;2022-09-09T03:24:21;10.40;92.10
48994;DHT22;34804;49.214;12.276;2022-09-09T03:26:49;10.40;92.10
48994;DHT22;34804;49.214;12.276;2022-09-09T03:29:17;10.40;91.80
48994;DHT22;34804;49.214;12.276;2022-09-09T03:31:45;10.30;92.10
48994;DHT22;34804;49.214;12.276;2022-09-09T03:34:12;10.30;91.70
48994;DHT22;34804;49.214;12.276;2022-09-09T03:36:40;10.30;91.90
48994;DHT22;34804;49.214;12.276;2022-09-09T03:39:07;10.20;92.40
48994;DHT22;34804;49.214;12.276;2022-09-09T03:41:34;10.10;92.40
48994;DHT22;34804;49.214;12.276;2022-09-09T03:44:01;10.10;92.70
48994;DHT22;34804;49.214;12.276;2022-09-09T03:46:28;10.10;93.10
48994;DHT22;34804;49.214;12.276;2022-09-09T03:48:54;10.10;93.50
48994;DHT22;34804;49.214;12.276;2022-09-09T03:51:21;10.20;93.40
48994;DHT22;34804;49.214;12.276;2022-09-09T03:53:48;10.20;93.30
48994;DHT22;34804;49.214;12.276;2022-09-09T03:56:15;10.30;93.20
48994;DHT22;34804;49.214;12.276;2022-09-09T03:58:42;10.30;93.20
48994;DHT22;34804;49.214;12.276;2022-09-09T04:01:14;10.30;92.60
48994;DHT22;34804;49.214;12.276;2022-09-09T04:03:41;10.30;92.50
48994;DHT22;34804;49.214;12.276;2022-09-09T04:06:10;10.30;92.70
48994;DHT22;34804;49.214;12.276;2022-09-09T04:08:41;10.30;92.70
48994;DHT22;34804;49.214;12.276;2022-09-09T04:11:08;10.40;92.60
48994;DHT22;34804;49.214;12.276;2022-09-09T04:13:36;10.40;92.10
48994;DHT22;34804;49.214;12.276;2022-09-09T04:16:07;10.30;92.10
48994;DHT22;34804;49.214;12.276;2022-09-09T04:18:34;10.30;92.00
48994;DHT22;34804;49.214;12.276;2022-09-09T04:21:02;10.30;92.10
48994;DHT22;34804;49.214;12.276;2022-09-09T04:23:30;10.30;92.60
48994;DHT22;34804;49.214;12.276;2022-09-09T04:25:58;10.30;92.20
48994;DHT22;34804;49.214;12.276;2022-09-09T04:28:27;10.30;92.10
48994;DHT22;34804;49.214;12.276;2022-09-09T04:30:55;10.30;92.40
48994;DHT22;34804;49.214;12.276;2022-09-09T04:33:24;10.30;92.10
48994;DHT22;34804;49.214;12.276;2022-09-09T04:35:53;10.20;92.40
48994;DHT22;34804;49.214;12.276;2022-09-09T04:38:21;10.20;92.70
48994;DHT22;34804;49.214;12.276;2022-09-09T04:40:50;10.20;92.80
48994;DHT22;34804;49.214;12.276;2022-09-09T04:43:18;10.20;92.90
48994;DHT22;34804;49.214;12.276;2022-09-09T04:45:48;10.20;93.10
48994;DHT22;34804;49.214;12.276;2022-09-09T04:48:15;10.30;93.10
48994;DHT22;34804;49.214;12.276;2022-09-09T04:50:41;10.30;92.70
48994;DHT22;34804;49.214;12.276;2022-09-09T04:53:08;10.40;92.50
48994;DHT22;34804;49.214;12.276;2022-09-09T04:55:35;10.40;92.60
48994;DHT22;34804;49.214;12.276;2022-09-09T04:58:06;10.40;92.50
48994;DHT22;34804;49.214;12.276;2022-09-09T05:00:34;10.50;93.00
48994;DHT22;34804;49.214;12.276;2022-09-09T05:03:06;10.50;93.00
48994;DHT22;34804;49.214;12.276;2022-09-09T05:05:35;10.60;93.10
48994;DHT22;34804;49.214;12.276;2022-09-09T05:08:06;10.60;93.10
48994;DHT22;34804;49.214;12.276;2022-09-09T05:10:34;10.60;93.00
48994;DHT22;34804;49.214;12.276;2022-09-09T05:13:01;10.70;93.30
48994;DHT22;34804;49.214;12.276;2022-09-09T05:15:27;10.80;93.40
48994;DHT22;34804;49.214;12.276;2022-09-09T05:17:59;10.80;93.30
48994;DHT22;34804;49.214;12.276;2022-09-09T05:20:27;10.90;93.20
48994;DHT22;34804;49.214;12.276;2022-09-09T05:22:55;11.00;92.60
48994;DHT22;34804;49.214;12.276;2022-09-09T05:25:23;11.20;92.60
48994;DHT22;34804;49.214;12.276;2022-09-09T05:27:52;11.30;92.70
48994;DHT22;34804;49.214;12.276;2022-09-09T05:30:21;11.40;92.70
48994;DHT22;34804;49.214;12.276;2022-09-09T05:32:48;11.50;92.30
48994;DHT22;34804;49.214;12.276;2022-09-09T05:35:15;11.60;92.10
48994;DHT22;34804;49.214;12.276;2022-09-09T05:37:42;11.80;92.50
48994;DHT22;34804;49.214;12.276;2022-09-09T05:40:09;11.90;92.60
48994;DHT22;34804;49.214;12.276;2022-09-09T05:42:37;11.90;92.50
48994;DHT22;34804;49.214;12.276;2022-09-09T05:45:06;11.90;91.80
48994;DHT22;34804;49.214;12.276;2022-09-09T05:47:34;11.90;91.80
48994;DHT22;34804;49.214;12.276;2022-09-09T05:50:02;12.00;92.10
48994;DHT22;34804;49.214;12.276;2022-09-09T05:52:29;12.10;92.10
48994;DHT22;34804;49.214;12.276;2022-09-09T05:54:56;12.00;92.00
48994;DHT22;34804;49.214;12.276;2022-09-09T05:57:23;12.10;91.90
48994;DHT22;34804;49.214;12.276;2022-09-09T05:59:50;12.10;92.00
48994;DHT22;34804;49.214;12.276;2022-09-09T06:02:17;12.10;92.10
48994;DHT22;34804;49.214;12.276;2022-09-09T06:04:43;12.10;92.00
48994;DHT22;34804;49.214;12.276;2022-09-09T06:07:10;12.10;92.20
48994;DHT22;34804;49.214;12.276;2022-09-09T06:09:37;12.20;92.10
48994;DHT22;34804;49.214;12.276;2022-09-09T06:12:04;12.20;92.00
48994;DHT22;34804;49.214;12.276;2022-09-09T06:14:31;12.30;92.40
48994;DHT22;34804;49.214;12.276;2022-09-09T06:16:57;12.40;92.80
48994;DHT22;34804;49.214;12.276;2022-09-09T06:19:24;12.50;92.60
48994;DHT22;34804;49.214;12.276;2022-09-09T06:21:52;12.50;92.20
48994;DHT22;34804;49.214;12.276;2022-09-09T06:24:19;12.80;92.60
48994;DHT22;34804;49.214;12.276;2022-09-09T06:26:46;12.80;92.10
48994;DHT22;34804;49.214;12.276;2022-09-09T06:29:13;13.10;92.60
48994;DHT22;34804;49.214;12.276;2022-09-09T06:31:40;13.30;92.20
48994;DHT22;34804;49.214;12.276;2022-09-09T06:34:08;13.40;92.00
48994;DHT22;34804;49.214;12.276;2022-09-09T06:36:37;13.40;91.60
48994;DHT22;34804;49.214;12.276;2022-09-09T06:39:05;13.50;91.20
48994;DHT22;34804;49.214;12.276;2022-09-09T06:41:39;13.60;91.20
48994;DHT22;34804;49.214;12.276;2022-09-09T06:44:06;13.80;91.90
48994;DHT22;34804;49.214;12.276;2022-09-09T06:46:33;13.90;91.30
48994;DHT22;34804;49.214;12.276;2022-09-09T06:49:00;14.00;91.60
48994;DHT22;34804;49.214;12.276;2022-09-09T06:51:30;14.10;91.40
48994;DHT22;34804;49.214;12.276;2022-09-09T06:53:59;14.20;90.40
48994;DHT22;34804;49.214;12.276;2022-09-09T06:56:32;14.10;90.60
48994;DHT22;34804;49.214;12.276;2022-09-09T06:59:01;14.30;90.90
48994;DHT22;34804;49.214;12.276;2022-09-09T07:01:36;14.30;90.80
48994;DHT22;34804;49.214;12.276;2022-09-09T07:04:04;14.40;91.10
48994;DHT22;34804;49.214;12.276;2022-09-09T07:06:35;14.50;90.40
48994;DHT22;34804;49.214;12.276;2022-09-09T07:09:05;14.60;90.50
48994;DHT22;34804;49.214;12.276;2022-09-09T07:11:37;14.70;90.00
48994;DHT22;34804;49.214;12.276;2022-09-09T07:14:04;14.80;90.60
48994;DHT22;34804;49.214;12.276;2022-09-09T07:16:30;15.10;90.70
48994;DHT22;34804;49.214;12.276;2022-09-09T07:19:00;15.20;90.60
48994;DHT22;34804;49.214;12.276;2022-09-09T07:21:30;15.40;90.80
48994;DHT22;34804;49.214;12.276;2022-09-09T07:23:58;15.80;90.40
48994;DHT22;34804;49.214;12.276;2022-09-09T07:26:28;16.10;89.80
48994;DHT22;34804;49.214;12.276;2022-09-09T07:28:56;16.30;89.70
48994;DHT22;34804;49.214;12.276;2022-09-09T07:31:26;16.70;87.50
48994;DHT22;34804;49.214;12.276;2022-09-09T07:33:53;16.80;84.40
48994;DHT22;34804;49.214;12.276;2022-09-09T07:36:23;17.00;84.20
48994;DHT22;34804;49.214;12.276;2022-09-09T07:38:53;17.30;84.60
48994;DHT22;34804;49.214;12.276;2022-09-09T07:41:43;17.40;83.80
48994;DHT22;34804;49.214;12.276;2022-09-09T07:44:12;17.70;83.60
48994;DHT22;34804;49.214;12.276;2022-09-09T07:46:40;17.80;83.30
48994;DHT22;34804;49.214;12.276;2022-09-09T07:49:08;18.00;84.40
48994;DHT22;34804;49.214;12.276;2022-09-09T07:51:40;18.10;83.30
48994;DHT22;34804;49.214;12.276;2022-09-09T07:54:10;17.90;81.50
48994;DHT22;34804;49.214;12.276;2022-09-09T07:56:38;17.80;81.70
48994;DHT22;34804;49.214;12.276;2022-09-09T07:59:06;17.70;82.90
48994;DHT22;34804;49.214;12.276;2022-09-09T08:01:39;17.60;82.30
48994;DHT22;34804;49.214;12.276;2022-09-09T08:04:09;17.50;82.50
48994;DHT22;34804;49.214;12.276;2022-09-09T08:06:38;17.60;82.60
48994;DHT22;34804;49.214;12.276;2022-09-09T08:09:06;17.50;82.50
48994;DHT22;34804;49.214;12.276;2022-09-09T08:11:34;17.40;81.30
48994;DHT22;34804;49.214;12.276;2022-09-09T08:14:07;17.40;82.90
48994;DHT22;34804;49.214;12.276;2022-09-09T08:16:38;17.30;82.50
48994;DHT22;34804;49.214;12.276;2022-09-09T08:19:06;17.30;82.80
48994;DHT22;34804;49.214;12.276;2022-09-09T08:21:35;17.20;82.40
48994;DHT22;34804;49.214;12.276;2022-09-09T08:24:03;17.10;83.70
48994;DHT22;34804;49.214;12.276;2022-09-09T08:26:37;17.10;81.70
48994;DHT22;34804;49.214;12.276;2022-09-09T08:29:06;17.10;83.00
48994;DHT22;34804;49.214;12.276;2022-09-09T08:31:45;17.00;82.30
48994;DHT22;34804;49.214;12.276;2022-09-09T08:34:13;16.90;83.20
48994;DHT22;34804;49.214;12.276;2022-09-09T08:36:43;16.80;83.90
48994;DHT22;34804;49.214;12.276;2022-09-09T08:39:11;16.80;84.60
48994;DHT22;34804;49.214;12.276;2022-09-09T08:42:31;16.70;84.50
48994;DHT22;34804;49.214;12.276;2022-09-09T08:47:58;16.70;84.70
48994;DHT22;34804;49.214;12.276;2022-09-09T08:50:32;16.60;84.30
48994;DHT22;34804;49.214;12.276;2022-09-09T08:55:53;16.40;84.50
48994;DHT22;34804;49.214;12.276;2022-09-09T09:01:06;16.40;85.30
48994;DHT22;34804;49.214;12.276;2022-09-09T09:09:20;16.80;85.90
48994;DHT22;34804;49.214;12.276;2022-09-09T09:11:51;16.80;84.60
48994;DHT22;34804;49.214;12.276;2022-09-09T09:14:29;16.80;83.70
48994;DHT22;34804;49.214;12.276;2022-09-09T09:17:05;16.80;85.30
48994;DHT22;34804;49.214;12.276;2022-09-09T09:19:34;16.90;84.40
48994;DHT22;34804;49.214;12.276;2022-09-09T09:27:32;17.10;83.50
48994;DHT22;34804;49.214;12.276;2022-09-09T09:30:02;17.10;83.40
48994;DHT22;34804;49.214;12.276;2022-09-09T09:32:57;17.20;85.10
48994;DHT22;34804;49.214;12.276;2022-09-09T09:35:25;17.30;82.80
48994;DHT22;34804;49.214;12.276;2022-09-09T09:37:52;17.40;83.20
48994;DHT22;34804;49.214;12.276;2022-09-09T09:40:57;17.60;83.30
48994;DHT22;34804;49.214;12.276;2022-09-09T09:43:28;17.90;81.70
48994;DHT22;34804;49.214;12.276;2022-09-09T09:45:55;18.00;80.50
48994;DHT22;34804;49.214;12.276;2022-09-09T09:48:43;18.00;80.70
48994;DHT22;34804;49.214;12.276;2022-09-09T09:51:13;18.30;79.30
48994;DHT22;34804;49.214;12.276;2022-09-09T09:53:43;18.50;79.80
48994;DHT22;34804;49.214;12.276;2022-09-09T09:56:14;18.70;79.90
48994;DHT22;34804;49.214;12.276;2022-09-09T10:01:29;19.00;78.30
48994;DHT22;34804;49.214;12.276;2022-09-09T10:04:00;19.30;75.20
48994;DHT22;34804;49.214;12.276;2022-09-09T10:06:37;19.80;76.60
48994;DHT22;34804;49.214;12.276;2022-09-09T10:12:15;19.90;74.90
48994;DHT22;34804;49.214;12.276;2022-09-09T10:20:29;19.90;71.50
48994;DHT22;34804;49.214;12.276;2022-09-09T10:28:59;20.00;72.60
48994;DHT22;34804;49.214;12.276;2022-09-09T10:31:58;20.00;72.30
48994;DHT22;34804;49.214;12.276;2022-09-09T10:43:04;20.30;70.70
48994;DHT22;34804;49.214;12.276;2022-09-09T10:49:06;20.80;70.40
48994;DHT22;34804;49.214;12.276;2022-09-09T10:56:37;20.90;72.10
48994;DHT22;34804;49.214;12.276;2022-09-09T10:59:16;21.30;70.20
48994;DHT22;34804;49.214;12.276;2022-09-09T11:01:47;21.40;70.20
48994;DHT22;34804;49.214;12.276;2022-09-09T11:04:31;21.40;68.40
48994;DHT22;34804;49.214;12.276;2022-09-09T11:07:06;21.30;69.30
48994;DHT22;34804;49.214;12.276;2022-09-09T11:09:43;21.10;67.90
48994;DHT22;34804;49.214;12.276;2022-09-09T11:12:17;20.90;68.50
48994;DHT22;34804;49.214;12.276;2022-09-09T11:17:24;21.20;69.10
48994;DHT22;34804;49.214;12.276;2022-09-09T11:19:54;21.80;68.80
48994;DHT22;34804;49.214;12.276;2022-09-09T11:30:21;21.90;60.70
48994;DHT22;34804;49.214;12.276;2022-09-09T11:36:34;22.20;67.80
48994;DHT22;34804;49.214;12.276;2022-09-09T11:39:18;22.50;62.80
48994;DHT22;34804;49.214;12.276;2022-09-09T11:41:51;22.50;62.50
48994;DHT22;34804;49.214;12.276;2022-09-09T11:44:29;22.70;63.60
48994;DHT22;34804;49.214;12.276;2022-09-09T11:46:56;22.30;62.40
48994;DHT22;34804;49.214;12.276;2022-09-09T11:49:41;22.50;61.60
48994;DHT22;34804;49.214;12.276;2022-09-09T11:52:39;22.30;61.10
48994;DHT22;34804;49.214;12.276;2022-09-09T11:55:10;22.40;61.40
48994;DHT22;34804;49.214;12.276;2022-09-09T11:57:39;22.60;61.20
48994;DHT22;34804;49.214;12.276;2022-09-09T12:00:06;22.90;64.50
48994;DHT22;34804;49.214;12.276;2022-09-09T12:02:33;22.90;59.70
48994;DHT22;34804;49.214;12.276;2022-09-09T12:05:08;23.30;60.00
48994;DHT22;34804;49.214;12.276;2022-09-09T12:12:45;23.70;57.20
48994;DHT22;34804;49.214;12.276;2022-09-09T12:17:48;23.50;56.20
48994;DHT22;34804;49.214;12.276;2022-09-09T12:28:17;25.10;53.80
48994;DHT22;34804;49.214;12.276;2022-09-09T12:31:01;25.00;52.10
48994;DHT22;34804;49.214;12.276;2022-09-09T12:33:39;24.70;51.10
48994;DHT22;34804;49.214;12.276;2022-09-09T12:36:30;25.60;51.40
48994;DHT22;34804;49.214;12.276;2022-09-09T12:39:10;26.40;51.00
48994;DHT22;34804;49.214;12.276;2022-09-09T12:41:41;25.80;50.30
48994;DHT22;34804;49.214;12.276;2022-09-09T12:44:16;25.40;52.60
48994;DHT22;34804;49.214;12.276;2022-09-09T12:46:45;26.10;50.00
48994;DHT22;34804;49.214;12.276;2022-09-09T12:49:34;26.40;52.30
48994;DHT22;34804;49.214;12.276;2022-09-09T12:52:04;26.30;47.60
48994;DHT22;34804;49.214;12.276;2022-09-09T12:54:35;25.60;50.40
48994;DHT22;34804;49.214;12.276;2022-09-09T12:57:04;25.40;51.50
48994;DHT22;34804;49.214;12.276;2022-09-09T12:59:37;26.20;51.40
48994;DHT22;34804;49.214;12.276;2022-09-09T13:02:25;27.10;48.60
48994;DHT22;34804;49.214;12.276;2022-09-09T13:04:53;28.10;45.00
48994;DHT22;34804;49.214;12.276;2022-09-09T13:07:21;28.10;46.60
48994;DHT22;34804;49.214;12.276;2022-09-09T13:09:48;28.50;45.70
48994;DHT22;34804;49.214;12.276;2022-09-09T13:12:21;28.70;44.90
48994;DHT22;34804;49.214;12.276;2022-09-09T13:14:51;27.90;43.80
48994;DHT22;34804;49.214;12.276;2022-09-09T13:17:25;27.30;46.60
48994;DHT22;34804;49.214;12.276;2022-09-09T13:19:52;27.20;46.60
48994;DHT22;34804;49.214;12.276;2022-09-09T13:24:59;25.80;49.50
48994;DHT22;34804;49.214;12.276;2022-09-09T13:27:32;23.80;54.90
48994;DHT22;34804;49.214;12.276;2022-09-09T13:30:00;23.30;57.00
48994;DHT22;34804;49.214;12.276;2022-09-09T13:32:29;23.40;56.80
48994;DHT22;34804;49.214;12.276;2022-09-09T13:34:59;23.30;58.50
48994;DHT22;34804;49.214;12.276;2022-09-09T13:37:37;23.20;58.30
48994;DHT22;34804;49.214;12.276;2022-09-09T13:40:05;23.90;56.30
48994;DHT22;34804;49.214;12.276;2022-09-09T13:42:39;24.30;56.40
48994;DHT22;34804;49.214;12.276;2022-09-09T13:45:14;24.70;54.70
48994;DHT22;34804;49.214;12.276;2022-09-09T13:47:42;24.20;56.10
48994;DHT22;34804;49.214;12.276;2022-09-09T13:50:20;23.20;59.10
48994;DHT22;34804;49.214;12.276;2022-09-09T13:52:48;22.80;60.20
48994;DHT22;34804;49.214;12.276;2022-09-09T13:55:17;22.80;60.60
48994;DHT22;34804;49.214;12.276;2022-09-09T13:58:00;22.50;61.20
48994;DHT22;34804;49.214;12.276;2022-09-09T14:00:33;22.60;62.80
48994;DHT22;34804;49.214;12.276;2022-09-09T14:03:00;22.80;61.20
48994;DHT22;34804;49.214;12.276;2022-09-09T14:05:31;23.20;59.90
48994;DHT22;34804;49.214;12.276;2022-09-09T14:07:59;23.80;59.20
48994;DHT22;34804;49.214;12.276;2022-09-09T14:10:27;25.10;56.40
48994;DHT22;34804;49.214;12.276;2022-09-09T14:12:54;25.20;54.20
48994;DHT22;34804;49.214;12.276;2022-09-09T14:15:20;25.40;54.00
48994;DHT22;34804;49.214;12.276;2022-09-09T14:17:48;25.50;53.90
48994;DHT22;34804;49.214;12.276;2022-09-09T14:20:15;25.30;54.20
48994;DHT22;34804;49.214;12.276;2022-09-09T14:22:44;25.10;53.80
48994;DHT22;34804;49.214;12.276;2022-09-09T14:25:11;24.30;56.60
48994;DHT22;34804;49.214;12.276;2022-09-09T14:27:40;24.30;56.50
48994;DHT22;34804;49.214;12.276;2022-09-09T14:30:07;24.80;55.70
48994;DHT22;34804;49.214;12.276;2022-09-09T14:32:34;24.10;56.70
48994;DHT22;34804;49.214;12.276;2022-09-09T14:35:01;24.00;57.20
48994;DHT22;34804;49.214;12.276;2022-09-09T14:37:28;24.80;56.90
48994;DHT22;34804;49.214;12.276;2022-09-09T14:39:57;26.10;52.20
48994;DHT22;34804;49.214;12.276;2022-09-09T14:42:24;27.40;52.70
48994;DHT22;34804;49.214;12.276;2022-09-09T14:44:52;28.20;47.10
48994;DHT22;34804;49.214;12.276;2022-09-09T14:47:19;28.40;47.60
48994;DHT22;34804;49.214;12.276;2022-09-09T14:49:45;28.80;47.10
48994;DHT22;34804;49.214;12.276;2022-09-09T14:52:13;28.60;45.20
48994;DHT22;34804;49.214;12.276;2022-09-09T14:54:39;28.70;46.20
48994;DHT22;34804;49.214;12.276;2022-09-09T14:57:06;28.90;45.70
48994;DHT22;34804;49.214;12.276;2022-09-09T14:59:33;29.20;45.00
48994;DHT22;34804;49.214;12.276;2022-09-09T15:02:00;29.10;44.80
48994;DHT22;34804;49.214;12.276;2022-09-09T15:04:30;29.10;45.00
48994;DHT22;34804;49.214;12.276;2022-09-09T15:06:57;29.00;43.50
48994;DHT22;34804;49.214;12.276;2022-09-09T15:09:25;28.10;45.40
48994;DHT22;34804;49.214;12.276;2022-09-09T15:11:52;28.00;46.90
48994;DHT22;34804;49.214;12.276;2022-09-09T15:14:18;28.40;45.40
48994;DHT22;34804;49.214;12.276;2022-09-09T15:16:51;27.90;45.70
48994;DHT22;34804;49.214;12.276;2022-09-09T15:19:17;26.50;47.80
48994;DHT22;34804;49.214;12.276;2022-09-09T15:21:44;24.80;51.60
48994;DHT22;34804;49.214;12.276;2022-09-09T15:24:11;23.80;55.50
48994;DHT22;34804;49.214;12.276;2022-09-09T15:26:40;23.20;57.80
48994;DHT22;34804;49.214;12.276;2022-09-09T15:29:07;22.80;58.20
48994;DHT22;34804;49.214;12.276;2022-09-09T15:31:34;22.10;61.20
48994;DHT22;34804;49.214;12.276;2022-09-09T15:34:04;21.80;61.90
48994;DHT22;34804;49.214;12.276;2022-09-09T15:36:33;21.50;63.70
48994;DHT22;34804;49.214;12.276;2022-09-09T15:39:02;21.30;64.90
48994;DHT22;34804;49.214;12.276;2022-09-09T15:41:30;21.20;64.10
48994;DHT22;34804;49.214;12.276;2022-09-09T15:43:58;21.10;65.30
48994;DHT22;34804;49.214;12.276;2022-09-09T15:48:57;21.10;65.30
48994;DHT22;34804;49.214;12.276;2022-09-09T15:51:25;21.10;65.20
48994;DHT22;34804;49.214;12.276;2022-09-09T15:54:11;21.10;64.80
48994;DHT22;34804;49.214;12.276;2022-09-09T15:56:39;21.00;65.90
48994;DHT22;34804;49.214;12.276;2022-09-09T15:59:06;21.00;65.60
48994;DHT22;34804;49.214;12.276;2022-09-09T16:01:34;20.90;65.80
48994;DHT22;34804;49.214;12.276;2022-09-09T16:04:02;20.80;65.60
48994;DHT22;34804;49.214;12.276;2022-09-09T16:06:29;20.80;66.20
48994;DHT22;34804;49.214;12.276;2022-09-09T16:08:57;20.80;66.10
48994;DHT22;34804;49.214;12.276;2022-09-09T16:11:33;20.80;66.40
48994;DHT22;34804;49.214;12.276;2022-09-09T16:14:00;20.80;66.20
48994;DHT22;34804;49.214;12.276;2022-09-09T16:16:28;20.60;67.60
48994;DHT22;34804;49.214;12.276;2022-09-09T16:19:02;20.70;66.90
48994;DHT22;34804;49.214;12.276;2022-09-09T16:21:33;20.60;67.20
48994;DHT22;34804;49.214;12.276;2022-09-09T16:24:02;20.60;67.70
48994;DHT22;34804;49.214;12.276;2022-09-09T16:26:32;20.60;67.60
48994;DHT22;34804;49.214;12.276;2022-09-09T16:29:00;20.50;67.40
48994;DHT22;34804;49.214;12.276;2022-09-09T16:31:29;20.40;68.30
48994;DHT22;34804;49.214;12.276;2022-09-09T16:33:56;20.40;68.50
48994;DHT22;34804;49.214;12.276;2022-09-09T16:36:25;20.30;68.70
48994;DHT22;34804;49.214;12.276;2022-09-09T16:38:53;20.30;69.00
48994;DHT22;34804;49.214;12.276;2022-09-09T16:41:21;20.30;69.20
48994;DHT22;34804;49.214;12.276;2022-09-09T16:43:53;20.10;69.60
48994;DHT22;34804;49.214;12.276;2022-09-09T16:46:21;20.10;70.50
48994;DHT22;34804;49.214;12.276;2022-09-09T16:48:48;20.00;70.50
48994;DHT22;34804;49.214;12.276;2022-09-09T16:51:24;20.00;70.70
48994;DHT22;34804;49.214;12.276;2022-09-09T16:53:52;20.00;70.90
48994;DHT22;34804;49.214;12.276;2022-09-09T16:56:22;19.90;71.70
48994;DHT22;34804;49.214;12.276;2022-09-09T16:58:54;19.80;72.00
48994;DHT22;34804;49.214;12.276;2022-09-09T17:01:29;19.80;72.20
48994;DHT22;34804;49.214;12.276;2022-09-09T17:04:00;19.70;73.00
48994;DHT22;34804;49.214;12.276;2022-09-09T17:06:31;19.70;73.10
48994;DHT22;34804;49.214;12.276;2022-09-09T17:09:03;19.60;74.10
48994;DHT22;34804;49.214;12.276;2022-09-09T17:11:30;18.90;68.90
48994;DHT22;34804;49.214;12.276;2022-09-09T17:13:58;18.30;69.50
48994;DHT22;34804;49.214;12.276;2022-09-09T17:16:29;17.90;72.00
48994;DHT22;34804;49.214;12.276;2022-09-09T17:18:57;17.10;77.90
48994;DHT22;34804;49.214;12.276;2022-09-09T17:21:26;16.50;83.20
48994;DHT22;34804;49.214;12.276;2022-09-09T17:23:54;15.60;83.20
48994;DHT22;34804;49.214;12.276;2022-09-09T17:26:28;15.10;87.50
48994;DHT22;34804;49.214;12.276;2022-09-09T17:28:56;15.10;91.30
48994;DHT22;34804;49.214;12.276;2022-09-09T17:31:27;15.10;90.70
48994;DHT22;34804;49.214;12.276;2022-09-09T17:33:55;14.80;89.40
48994;DHT22;34804;49.214;12.276;2022-09-09T17:36:25;14.70;91.70
48994;DHT22;34804;49.214;12.276;2022-09-09T17:38:52;14.90;93.10
48994;DHT22;34804;49.214;12.276;2022-09-09T17:41:31;14.90;92.80
48994;DHT22;34804;49.214;12.276;2022-09-09T17:43:59;14.80;91.40
48994;DHT22;34804;49.214;12.276;2022-09-09T17:48:56;14.60;90.20
48994;DHT22;34804;49.214;12.276;2022-09-09T17:51:24;14.70;92.50
48994;DHT22;34804;49.214;12.276;2022-09-09T17:53:55;14.80;92.70
48994;DHT22;34804;49.214;12.276;2022-09-09T17:56:22;14.90;92.60
48994;DHT22;34804;49.214;12.276;2022-09-09T17:58:50;14.80;91.40
48994;DHT22;34804;49.214;12.276;2022-09-09T18:01:20;14.70;90.60
48994;DHT22;34804;49.214;12.276;2022-09-09T18:03:48;14.70;91.30